createdAt,value
2024-02-17T00:02:14.495Z,79.41
2024-02-17T00:05:58.499Z,78.98
2024-02-17T00:09:42.528Z,79.38
2024-02-17T00:13:26.431Z,79.55
2024-02-17T00:17:10.524Z,79.85
2024-02-17T00:20:58.801Z,79.72
2024-02-17T00:24:43.428Z,80.07
2024-02-17T00:28:28.699Z,80.30
2024-02-17T00:32:12.509Z,79.98
2024-02-17T00:35:58.454Z,79.50
2024-02-17T00:39:42.639Z,80.18
2024-02-17T00:43:26.501Z,79.72
2024-02-17T00:47:10.425Z,80.11
2024-02-17T00:50:58.178Z,80.26
2024-02-17T00:54:50.256Z,80.13
2024-02-17T00:58:33.728Z,80.09
2024-02-17T01:02:17.699Z,80.01
2024-02-17T01:06:01.486Z,80.12
2024-02-17T01:09:45.331Z,80.10
2024-02-17T01:13:30.435Z,79.13
2024-02-17T01:17:14.727Z,79.65
2024-02-17T01:20:58.689Z,79.34
2024-02-17T01:24:44.114Z,78.95
2024-02-17T01:28:29.269Z,78.19
2024-02-17T01:32:13.117Z,78.67
2024-02-17T01:35:56.778Z,78.78
2024-02-17T01:39:41.069Z,78.64
2024-02-17T01:43:25.147Z,79.13
2024-02-17T01:47:11.902Z,79.80
2024-02-17T01:50:56.420Z,78.98
2024-02-17T01:54:42.325Z,79.82
2024-02-17T01:58:26.170Z,80.23
2024-02-17T02:02:12.386Z,79.69
2024-02-17T02:05:56.748Z,79.85
2024-02-17T02:09:40.739Z,80.05
2024-02-17T02:13:24.739Z,79.50
2024-02-17T02:17:08.800Z,79.75
2024-02-17T02:20:54.055Z,79.25
2024-02-17T02:24:38.908Z,78.49
2024-02-17T02:28:24.333Z,77.94
2024-02-17T02:32:10.213Z,79.04
2024-02-17T02:35:54.139Z,78.80
2024-02-17T02:39:41.150Z,80.39
2024-02-17T02:43:26.425Z,81.72
2024-02-17T02:47:10.421Z,82.11
2024-02-17T02:50:54.193Z,82.71
2024-02-17T02:54:37.976Z,82.66
2024-02-17T02:58:22.160Z,82.73
2024-02-17T03:02:07.514Z,82.70
2024-02-17T03:05:51.474Z,81.91
2024-02-17T03:09:35.476Z,82.92
2024-02-17T03:13:20.058Z,82.68
2024-02-17T03:17:07.755Z,81.43
2024-02-17T03:20:51.678Z,82.36
2024-02-17T03:24:37.687Z,81.70
2024-02-17T03:28:21.577Z,81.92
2024-02-17T03:32:08.304Z,80.53
2024-02-17T03:35:52.031Z,81.06
2024-02-17T03:39:36.710Z,82.05
2024-02-17T03:43:20.239Z,80.85
2024-02-17T03:47:03.899Z,80.58
2024-02-17T03:50:51.494Z,81.22
2024-02-17T03:54:35.439Z,81.88
2024-02-17T03:58:19.455Z,82.25
2024-02-17T04:02:03.203Z,82.38
2024-02-17T04:05:48.789Z,82.05
2024-02-17T04:09:32.745Z,81.03
2024-02-17T04:13:16.628Z,82.15
2024-02-17T04:17:04.919Z,81.85
2024-02-17T04:20:50.113Z,80.66
2024-02-17T04:24:33.984Z,81.08
2024-02-17T04:28:17.792Z,81.75
2024-02-17T04:32:01.548Z,81.04
2024-02-17T04:35:45.305Z,81.76
2024-02-17T04:39:30.543Z,81.51
2024-02-17T04:43:14.328Z,82.21
2024-02-17T04:46:58.143Z,82.63
2024-02-17T04:50:43.331Z,81.38
2024-02-17T04:54:27.442Z,81.54
2024-02-17T04:58:18.518Z,81.94
2024-02-17T05:02:02.797Z,82.39
2024-02-17T05:05:46.708Z,81.44
2024-02-17T05:09:30.561Z,81.33
2024-02-17T05:13:15.974Z,82.02
2024-02-17T05:16:59.894Z,82.53
2024-02-17T05:20:43.645Z,83.29
2024-02-17T05:24:27.506Z,84.61
2024-02-17T05:28:11.127Z,85.33
2024-02-17T05:31:56.195Z,86.63
2024-02-17T05:35:39.832Z,87.25
2024-02-17T05:39:23.747Z,88.01
2024-02-17T05:43:07.594Z,87.77
2024-02-17T05:46:50.791Z,88.71
2024-02-17T05:50:35.919Z,89.62
2024-02-17T05:54:20.369Z,89.43
2024-02-17T05:58:04.146Z,89.93
2024-02-17T06:01:48.302Z,90.02
2024-02-17T06:05:34.126Z,90.30
2024-02-17T06:09:19.485Z,90.81
2024-02-17T06:13:03.228Z,90.98
2024-02-17T06:16:47.484Z,90.55
2024-02-17T06:20:48.793Z,90.75
2024-02-17T06:24:33.975Z,91.11
2024-02-17T06:28:17.802Z,91.57
2024-02-17T06:32:04.675Z,91.96
2024-02-17T06:35:48.349Z,91.90
2024-02-17T06:39:33.833Z,91.38
2024-02-17T06:43:19.297Z,91.52
2024-02-17T06:47:03.164Z,92.17
2024-02-17T06:50:46.902Z,91.60
2024-02-17T06:54:30.737Z,91.83
2024-02-17T06:58:15.774Z,91.69
2024-02-17T07:01:59.538Z,92.31
2024-02-17T07:05:43.723Z,92.78
2024-02-17T07:09:27.506Z,92.39
2024-02-17T07:13:11.497Z,91.96
2024-02-17T07:16:58.271Z,92.74
2024-02-17T07:20:42.596Z,92.87
2024-02-17T07:24:28.467Z,92.34
2024-02-17T07:28:14.099Z,92.00
2024-02-17T07:31:59.789Z,92.74
2024-02-17T07:35:46.291Z,92.89
2024-02-17T07:39:30.838Z,92.44
2024-02-17T07:43:14.788Z,92.85
2024-02-17T07:47:00.405Z,93.03
2024-02-17T07:50:44.394Z,92.20
2024-02-17T07:54:28.407Z,92.29
2024-02-17T07:58:12.355Z,92.90
2024-02-17T08:01:56.034Z,92.36
2024-02-17T08:05:41.258Z,92.54
2024-02-17T08:09:25.025Z,92.45
2024-02-17T08:13:08.911Z,92.86
2024-02-17T08:16:52.675Z,93.07
2024-02-17T08:20:36.300Z,92.96
2024-02-17T08:24:21.546Z,92.51
2024-02-17T08:28:05.694Z,92.86
2024-02-17T08:31:53.283Z,92.70
2024-02-17T08:35:38.667Z,92.24
2024-02-17T08:39:23.698Z,92.76
2024-02-17T08:43:07.742Z,92.60
2024-02-17T08:46:51.376Z,92.83
2024-02-17T08:50:35.051Z,92.49
2024-02-17T08:54:19.792Z,92.63
2024-02-17T08:58:04.994Z,92.82
2024-02-17T09:01:48.708Z,92.38
2024-02-17T09:05:32.339Z,92.40
2024-02-17T09:09:16.104Z,92.60
2024-02-17T09:12:59.797Z,92.64
2024-02-17T09:16:44.908Z,92.76
2024-02-17T09:20:29.372Z,93.19
2024-02-17T09:24:13.333Z,92.31
2024-02-17T09:27:56.995Z,93.06
2024-02-17T09:31:41.050Z,92.99
2024-02-17T09:35:26.063Z,93.08
2024-02-17T09:39:10.114Z,92.53
2024-02-17T09:42:53.925Z,92.80
2024-02-17T09:46:38.329Z,92.96
2024-02-17T09:50:22.542Z,92.96
2024-02-17T09:54:08.896Z,92.70
2024-02-17T09:57:55.602Z,93.13
2024-02-17T10:01:39.848Z,93.04
2024-02-17T10:05:25.599Z,92.74
2024-02-17T10:09:12.253Z,93.06
2024-02-17T10:12:58.092Z,92.91
2024-02-17T10:16:42.007Z,92.67
2024-02-17T10:20:26.149Z,92.46
2024-02-17T10:24:11.267Z,92.14
2024-02-17T10:27:55.186Z,92.29
2024-02-17T10:31:39.092Z,92.42
2024-02-17T10:35:23.745Z,92.50
2024-02-17T10:39:10.459Z,92.33
2024-02-17T10:42:54.200Z,92.77
2024-02-17T10:46:38.781Z,92.54
2024-02-17T10:50:22.858Z,91.87
2024-02-17T10:54:10.459Z,91.94
2024-02-17T10:58:05.143Z,92.03
2024-02-17T11:01:53.117Z,92.02
2024-02-17T11:05:41.520Z,91.74
2024-02-17T11:09:25.633Z,91.48
2024-02-17T11:13:22.372Z,91.16
2024-02-17T11:17:06.087Z,90.73
2024-02-17T11:20:50.158Z,90.31
2024-02-17T11:24:34.826Z,89.92
2024-02-17T11:28:22.028Z,89.43
2024-02-17T11:32:07.038Z,88.00
2024-02-17T11:35:51.178Z,87.69
2024-02-17T11:39:36.160Z,87.31
2024-02-17T11:43:21.697Z,86.74
2024-02-17T11:47:06.938Z,85.99
2024-02-17T11:50:50.679Z,85.51
2024-02-17T11:54:35.555Z,84.90
2024-02-17T11:58:23.723Z,83.93
2024-02-17T12:02:12.834Z,82.30
2024-02-17T12:05:57.712Z,81.99
2024-02-17T12:09:42.457Z,82.46
2024-02-17T12:13:28.172Z,82.85
2024-02-17T12:17:11.782Z,83.59
2024-02-17T12:20:55.469Z,83.48
2024-02-17T12:24:39.516Z,83.44
2024-02-17T12:28:23.865Z,82.96
2024-02-17T12:32:21.068Z,82.78
2024-02-17T12:36:04.944Z,83.41
2024-02-17T12:39:48.358Z,84.21
2024-02-17T12:43:37.741Z,83.89
2024-02-17T12:47:30.826Z,83.95
2024-02-17T12:51:14.553Z,83.26
2024-02-17T12:54:58.477Z,83.14
2024-02-17T12:58:42.250Z,82.44
2024-02-17T13:02:26.095Z,82.26
2024-02-17T13:06:11.707Z,81.30
2024-02-17T13:09:55.700Z,81.26
2024-02-17T13:13:41.079Z,80.59
2024-02-17T13:17:24.991Z,80.07
2024-02-17T13:21:11.357Z,80.03
2024-02-17T13:24:55.131Z,79.71
2024-02-17T13:28:38.738Z,80.07
2024-02-17T13:32:22.712Z,79.75
2024-02-17T13:36:07.094Z,79.76
2024-02-17T13:39:53.696Z,79.75
2024-02-17T13:43:37.613Z,79.69
2024-02-17T13:47:21.157Z,80.01
2024-02-17T13:51:05.344Z,79.73
2024-02-17T13:54:49.980Z,78.81
2024-02-17T13:58:34.742Z,78.55
2024-02-17T14:02:18.623Z,78.41
2024-02-17T14:06:02.759Z,78.65
2024-02-17T14:09:47.077Z,78.27
2024-02-17T14:13:30.962Z,77.66
2024-02-17T14:17:18.022Z,77.40
2024-02-17T14:21:02.605Z,77.70
2024-02-17T14:24:46.430Z,77.85
2024-02-17T14:28:30.703Z,78.24
2024-02-17T14:32:15.755Z,77.95
2024-02-17T14:35:59.539Z,77.98
2024-02-17T14:39:43.474Z,78.57
2024-02-17T14:43:27.240Z,78.90
2024-02-17T14:47:11.622Z,78.85
2024-02-17T14:50:56.966Z,79.32
2024-02-17T14:54:44.384Z,79.38
2024-02-17T14:58:29.046Z,79.75
2024-02-17T15:02:12.971Z,79.28
2024-02-17T15:05:59.340Z,80.30
2024-02-17T15:09:43.465Z,80.35
2024-02-17T15:13:28.600Z,81.31
2024-02-17T15:17:12.340Z,82.41
2024-02-17T15:20:57.477Z,82.70
2024-02-17T15:24:41.111Z,83.38
2024-02-17T15:28:28.021Z,84.16
2024-02-17T15:32:11.462Z,84.42
2024-02-17T15:35:55.198Z,84.40
2024-02-17T15:39:40.601Z,85.38
2024-02-17T15:43:24.479Z,84.66
2024-02-17T15:47:08.689Z,83.91
2024-02-17T15:50:55.042Z,83.25
2024-02-17T15:54:40.220Z,83.71
2024-02-17T15:58:24.730Z,83.80
2024-02-17T16:02:08.477Z,82.98
2024-02-17T16:05:53.737Z,82.50
2024-02-17T16:09:37.877Z,82.96
2024-02-17T16:13:23.057Z,82.30
2024-02-17T16:17:06.535Z,82.10
2024-02-17T16:20:54.552Z,81.80
2024-02-17T16:24:39.388Z,81.57
2024-02-17T16:28:25.035Z,81.27
2024-02-17T16:32:09.208Z,81.18
2024-02-17T16:35:52.930Z,80.68
2024-02-17T16:39:36.568Z,80.80
2024-02-17T16:43:20.327Z,80.51
2024-02-17T16:47:10.243Z,80.15
2024-02-17T16:50:54.271Z,80.36
2024-02-17T16:54:38.352Z,80.31
2024-02-17T16:58:22.305Z,80.37
2024-02-17T17:02:07.664Z,79.02
2024-02-17T17:05:51.306Z,79.29
2024-02-17T17:09:35.717Z,77.69
2024-02-17T17:13:20.916Z,78.09
2024-02-17T17:17:05.431Z,77.87
2024-02-17T17:20:50.378Z,76.48
2024-02-17T17:24:34.031Z,75.79
2024-02-17T17:28:17.768Z,75.27
2024-02-17T17:32:01.676Z,75.28
2024-02-17T17:35:45.602Z,74.89
2024-02-17T17:39:30.737Z,74.45
2024-02-17T17:43:14.563Z,74.67
2024-02-17T17:46:59.736Z,75.28
2024-02-17T17:50:44.390Z,75.81
2024-02-17T17:54:28.510Z,74.70
2024-02-17T17:58:13.668Z,75.46
2024-02-17T18:01:57.705Z,74.11
2024-02-17T18:05:41.308Z,74.49
2024-02-17T18:09:25.317Z,74.92
2024-02-17T18:13:10.082Z,75.35
2024-02-17T18:16:55.465Z,74.94
2024-02-17T18:20:39.268Z,75.24
2024-02-17T18:24:23.051Z,74.56
2024-02-17T18:28:07.658Z,75.58
2024-02-17T18:31:51.692Z,75.48
2024-02-17T18:35:37.335Z,76.07
2024-02-17T18:39:21.060Z,76.71
2024-02-17T18:43:05.173Z,76.72
2024-02-17T18:46:50.156Z,78.24
2024-02-17T18:50:34.526Z,77.82
2024-02-17T18:54:20.609Z,78.56
2024-02-17T18:58:04.715Z,79.74
2024-02-17T19:01:49.039Z,79.06
2024-02-17T19:05:33.347Z,80.48
2024-02-17T19:09:17.153Z,80.91
2024-02-17T19:13:02.994Z,80.72
2024-02-17T19:16:46.696Z,81.31
2024-02-17T19:20:30.959Z,82.78
2024-02-17T19:24:15.581Z,82.68
2024-02-17T19:28:00.395Z,83.45
2024-02-17T19:31:45.483Z,83.48
2024-02-17T19:35:29.290Z,83.66
2024-02-17T19:39:13.552Z,83.73
2024-02-17T19:42:57.782Z,83.52
2024-02-17T19:46:43.271Z,83.59
2024-02-17T19:50:28.553Z,83.36
2024-02-17T19:54:12.401Z,83.67
2024-02-17T19:57:56.308Z,83.86
2024-02-17T20:01:40.346Z,83.35
2024-02-17T20:05:25.359Z,83.27
2024-02-17T20:09:10.474Z,83.10
2024-02-17T20:12:54.574Z,83.83
2024-02-17T20:16:39.054Z,83.59
2024-02-17T20:20:24.675Z,83.50
2024-02-17T20:24:10.498Z,83.14
2024-02-17T20:27:54.397Z,83.01
2024-02-17T20:31:38.582Z,83.11
2024-02-17T20:35:23.106Z,83.14
2024-02-17T20:39:07.659Z,82.78
2024-02-17T20:42:55.242Z,82.39
2024-02-17T20:46:39.262Z,82.14
2024-02-17T20:50:23.449Z,81.41
2024-02-17T20:54:07.390Z,81.60
2024-02-17T20:57:55.649Z,81.53
2024-02-17T21:01:40.048Z,81.55
2024-02-17T21:05:24.326Z,82.54
2024-02-17T21:09:09.286Z,82.44
2024-02-17T21:12:54.968Z,81.90
2024-02-17T21:16:43.009Z,81.24
2024-02-17T21:20:28.152Z,81.34
2024-02-17T21:24:12.272Z,81.16
2024-02-17T21:27:57.880Z,80.84
2024-02-17T21:31:43.308Z,81.44
2024-02-17T21:35:27.406Z,81.14
2024-02-17T21:39:15.066Z,81.25
2024-02-17T21:43:00.426Z,81.22
2024-02-17T21:46:44.916Z,81.22
2024-02-17T21:50:31.313Z,80.95
2024-02-17T21:54:17.412Z,81.11
2024-02-17T21:58:02.762Z,81.21
2024-02-17T22:01:55.217Z,81.50
2024-02-17T22:05:45.156Z,82.08
2024-02-17T22:09:28.741Z,81.91
2024-02-17T22:13:13.788Z,81.69
2024-02-17T22:16:57.401Z,81.01
2024-02-17T22:20:40.633Z,80.92
2024-02-17T22:24:24.735Z,80.74
2024-02-17T22:28:08.568Z,80.04
2024-02-17T22:31:54.208Z,79.66
2024-02-17T22:35:37.935Z,79.47
2024-02-17T22:39:24.314Z,79.48
2024-02-17T22:43:08.362Z,79.22
2024-02-17T22:46:54.050Z,78.95
2024-02-17T22:50:38.302Z,78.62
2024-02-17T22:54:22.176Z,78.72
2024-02-17T22:58:06.329Z,78.89
2024-02-17T23:01:50.748Z,77.47
2024-02-17T23:05:35.916Z,77.33
2024-02-17T23:09:19.742Z,75.18
2024-02-17T23:13:03.543Z,73.93
2024-02-17T23:16:47.283Z,73.38
2024-02-17T23:20:31.094Z,73.89
2024-02-17T23:24:16.521Z,73.68
2024-02-17T23:28:00.388Z,73.81
2024-02-17T23:31:45.915Z,74.42
2024-02-17T23:35:29.613Z,74.39
2024-02-17T23:39:15.357Z,74.09
2024-02-17T23:42:59.289Z,73.70
2024-02-17T23:46:43.562Z,73.53
2024-02-17T23:50:27.545Z,74.34
2024-02-17T23:54:11.108Z,73.96
2024-02-17T23:57:58.385Z,74.47
